Terminal Aerodrome Forecast
Issued by NWS

Home | Current Version | Previous Version | Text Only | Print | Product List | Glossary On
Versions: 1 2 3 4 5 6 7 8 9 10 11 12 13 14 15 16
000
FTUS43 KLSX 010500
TAFCPS
TAF
KCPS 010520Z 0106/0206 VRB04KT P6SM SCT250
     FM010900 00000KT 2SM BR SCT250
     FM011300 VRB04KT P6SM SCT250
     FM011800 07005KT P6SM SCT050 BKN250=

USA.gov is the U.S. government's official web portal to all federal, state and local government web resources and services.